createdAt,value
2018-07-30T00:02:30.128Z,14.97
2018-07-30T00:04:58.726Z,15.02
2018-07-30T00:07:27.381Z,15.08
2018-07-30T00:09:56.561Z,15.14
2018-07-30T00:12:25.161Z,15.18
2018-07-30T00:14:53.659Z,15.25
2018-07-30T00:17:22.277Z,15.31
2018-07-30T00:19:50.910Z,15.38
2018-07-30T00:22:19.494Z,15.42
2018-07-30T00:24:48.017Z,15.45
2018-07-30T00:27:16.614Z,15.47
2018-07-30T00:29:45.446Z,15.51
2018-07-30T00:32:14.132Z,15.56
2018-07-30T00:34:42.768Z,15.57
2018-07-30T00:37:11.502Z,15.58
2018-07-30T00:39:40.085Z,15.58
2018-07-30T00:42:08.723Z,15.59
2018-07-30T00:44:37.865Z,15.60
2018-07-30T00:47:06.359Z,15.61
2018-07-30T00:49:35.034Z,15.61
2018-07-30T00:52:03.716Z,15.62
2018-07-30T00:54:32.344Z,15.60
2018-07-30T00:57:01.087Z,15.58
2018-07-30T00:59:29.776Z,15.51
2018-07-30T01:01:58.268Z,15.51
2018-07-30T01:04:26.870Z,15.44
2018-07-30T01:06:55.625Z,15.39
2018-07-30T01:09:24.312Z,15.30
2018-07-30T01:11:55.786Z,15.22
2018-07-30T01:14:24.585Z,15.17
2018-07-30T01:16:53.233Z,15.09
2018-07-30T01:19:21.740Z,15.03
2018-07-30T01:21:50.331Z,14.96
2018-07-30T01:24:18.895Z,14.91
2018-07-30T01:26:47.478Z,14.88
2018-07-30T01:29:16.148Z,14.84
2018-07-30T01:31:44.649Z,14.78
2018-07-30T01:34:13.260Z,14.76
2018-07-30T01:36:41.902Z,14.74
2018-07-30T01:39:10.586Z,14.71
2018-07-30T01:41:39.197Z,14.68
2018-07-30T01:44:07.766Z,14.65
2018-07-30T01:46:36.353Z,14.64
2018-07-30T01:49:05.178Z,14.72
2018-07-30T01:51:33.770Z,14.85
2018-07-30T01:54:02.396Z,14.97
2018-07-30T01:56:31.070Z,15.09
2018-07-30T01:58:59.655Z,15.16
2018-07-30T02:01:28.443Z,15.23
2018-07-30T02:03:57.128Z,15.31
2018-07-30T02:06:25.809Z,15.38
2018-07-30T02:08:54.604Z,15.45
2018-07-30T02:11:23.275Z,15.52
2018-07-30T02:13:52.276Z,15.57
2018-07-30T02:16:20.908Z,15.65
2018-07-30T02:18:49.551Z,15.68
2018-07-30T02:21:18.238Z,15.71
2018-07-30T02:23:46.747Z,15.73
2018-07-30T02:26:15.499Z,15.76
2018-07-30T02:28:44.289Z,15.84
2018-07-30T02:31:12.973Z,15.88
2018-07-30T02:33:41.556Z,15.94
2018-07-30T02:36:10.226Z,16.02
2018-07-30T02:38:38.771Z,16.13
2018-07-30T02:41:07.409Z,16.21
2018-07-30T02:43:35.927Z,16.27
2018-07-30T02:46:04.576Z,16.30
2018-07-30T02:48:33.256Z,16.36
2018-07-30T02:51:01.872Z,16.38
2018-07-30T02:53:30.366Z,16.41
2018-07-30T02:55:59.006Z,16.46
2018-07-30T02:58:27.589Z,16.51
2018-07-30T03:00:56.315Z,16.58
2018-07-30T03:03:24.960Z,16.63
2018-07-30T03:05:53.597Z,16.67
2018-07-30T03:08:22.148Z,16.71
2018-07-30T03:10:50.874Z,16.73
2018-07-30T03:13:19.496Z,16.74
2018-07-30T03:15:48.180Z,16.76
2018-07-30T03:18:16.826Z,16.78
2018-07-30T03:20:45.393Z,16.80
2018-07-30T03:23:14.033Z,16.86
2018-07-30T03:25:42.570Z,16.91
2018-07-30T03:28:11.118Z,16.96
2018-07-30T03:30:39.678Z,17.00
2018-07-30T03:33:08.346Z,17.06
2018-07-30T03:35:36.886Z,17.12
2018-07-30T03:38:05.426Z,17.19
2018-07-30T03:40:34.216Z,17.25
2018-07-30T03:43:03.003Z,17.34
2018-07-30T03:45:31.689Z,17.41
2018-07-30T03:48:00.229Z,17.49
2018-07-30T03:50:28.818Z,17.59
2018-07-30T03:52:57.352Z,17.69
2018-07-30T03:55:26.012Z,17.79
2018-07-30T03:57:55.272Z,17.87
2018-07-30T04:00:23.936Z,17.97
2018-07-30T04:02:52.590Z,18.06
2018-07-30T04:05:21.218Z,18.14
2018-07-30T04:07:49.805Z,18.22
2018-07-30T04:10:18.390Z,18.30
2018-07-30T04:12:46.966Z,18.38
2018-07-30T04:15:15.547Z,18.47
2018-07-30T04:17:44.175Z,18.55
2018-07-30T04:20:12.696Z,18.65
2018-07-30T04:22:41.353Z,18.75
2018-07-30T04:25:09.880Z,18.83
2018-07-30T04:27:38.463Z,18.89
2018-07-30T04:30:07.103Z,18.95
2018-07-30T04:32:35.684Z,18.97
2018-07-30T04:35:04.575Z,19.00
2018-07-30T04:37:33.157Z,18.98
2018-07-30T04:40:02.355Z,19.02
2018-07-30T04:42:30.936Z,19.04
2018-07-30T04:44:59.574Z,19.08
2018-07-30T04:47:28.206Z,19.09
2018-07-30T04:49:56.734Z,19.15
2018-07-30T04:52:25.282Z,19.18
2018-07-30T04:54:53.902Z,19.21
2018-07-30T04:57:22.540Z,19.25
2018-07-30T04:59:51.120Z,19.29
2018-07-30T05:02:19.719Z,19.31
2018-07-30T05:04:48.331Z,19.32
2018-07-30T05:07:16.919Z,19.32
2018-07-30T05:09:45.555Z,19.37
2018-07-30T05:12:14.359Z,19.37
2018-07-30T05:14:42.972Z,19.41
2018-07-30T05:17:11.611Z,19.47
2018-07-30T05:19:40.384Z,19.54
2018-07-30T05:22:08.847Z,19.62
2018-07-30T05:24:37.420Z,19.72
2018-07-30T05:27:05.907Z,19.83
2018-07-30T05:29:34.782Z,19.95
2018-07-30T05:32:03.518Z,20.07
2018-07-30T05:34:32.059Z,20.18
2018-07-30T05:37:00.686Z,20.34
2018-07-30T05:39:29.269Z,20.49
2018-07-30T05:41:57.952Z,20.63
2018-07-30T05:44:26.492Z,20.79
2018-07-30T05:46:55.118Z,20.94
2018-07-30T05:49:23.699Z,21.17
2018-07-30T05:51:52.386Z,21.45
2018-07-30T05:54:21.070Z,21.68
2018-07-30T05:56:49.614Z,21.83
2018-07-30T05:59:18.218Z,21.99
2018-07-30T06:01:47.127Z,22.05
2018-07-30T06:04:15.686Z,22.11
2018-07-30T06:06:44.171Z,22.03
2018-07-30T06:09:12.727Z,22.08
2018-07-30T06:11:41.501Z,22.12
2018-07-30T06:14:09.978Z,22.22
2018-07-30T06:16:38.624Z,22.38
2018-07-30T06:19:07.206Z,22.58
2018-07-30T06:21:35.806Z,22.69
2018-07-30T06:24:04.432Z,22.79
2018-07-30T06:26:33.178Z,22.77
2018-07-30T06:29:01.743Z,22.82
2018-07-30T06:31:30.255Z,22.88
2018-07-30T06:33:58.918Z,22.89
2018-07-30T06:36:27.594Z,22.89
2018-07-30T06:38:56.129Z,22.92
2018-07-30T06:41:24.767Z,22.92
2018-07-30T06:43:53.290Z,22.95
2018-07-30T06:46:21.808Z,22.85
2018-07-30T06:48:50.407Z,22.87
2018-07-30T06:51:19.092Z,22.86
2018-07-30T06:53:47.618Z,22.92
2018-07-30T06:56:16.205Z,22.92
2018-07-30T06:58:44.778Z,23.02
2018-07-30T07:01:13.525Z,23.11
2018-07-30T07:03:42.287Z,23.14
2018-07-30T07:06:10.828Z,23.13
2018-07-30T07:08:39.478Z,23.22
2018-07-30T07:11:08.164Z,23.28
2018-07-30T07:13:36.782Z,23.28
2018-07-30T07:16:05.537Z,23.38
2018-07-30T07:18:34.144Z,23.36
2018-07-30T07:21:02.723Z,23.37
2018-07-30T07:23:31.828Z,23.41
2018-07-30T07:26:00.379Z,23.42
2018-07-30T07:28:28.882Z,23.49
2018-07-30T07:30:57.544Z,23.43
2018-07-30T07:33:26.167Z,23.49
2018-07-30T07:35:55.427Z,23.57
2018-07-30T07:38:24.009Z,23.63
2018-07-30T07:40:52.548Z,23.71
2018-07-30T07:43:21.176Z,23.71
2018-07-30T07:45:49.800Z,23.73
2018-07-30T07:48:18.587Z,23.73
2018-07-30T07:50:47.245Z,23.79
2018-07-30T07:53:15.765Z,23.90
2018-07-30T07:55:45.067Z,23.96
2018-07-30T07:58:13.751Z,24.02
2018-07-30T08:00:42.388Z,24.09
2018-07-30T08:03:11.015Z,24.08
2018-07-30T08:05:39.599Z,24.13
2018-07-30T08:08:08.483Z,24.21
2018-07-30T08:10:37.064Z,24.20
2018-07-30T08:13:05.705Z,24.26
2018-07-30T08:15:34.402Z,24.32
2018-07-30T08:18:03.127Z,24.38
2018-07-30T08:20:31.705Z,24.28
2018-07-30T08:23:00.348Z,24.35
2018-07-30T08:25:28.948Z,24.44
2018-07-30T08:27:57.561Z,24.46
2018-07-30T08:30:26.299Z,24.47
2018-07-30T08:32:54.960Z,24.54
2018-07-30T08:35:23.528Z,24.63
2018-07-30T08:37:52.148Z,24.71
2018-07-30T08:40:20.755Z,24.73
2018-07-30T08:42:49.366Z,24.77
2018-07-30T08:45:17.999Z,24.82
2018-07-30T08:47:46.613Z,24.79
2018-07-30T08:50:15.164Z,24.93
2018-07-30T08:52:43.851Z,25.11
2018-07-30T08:55:12.638Z,25.23
2018-07-30T08:57:41.323Z,25.33
2018-07-30T09:00:10.477Z,25.39
2018-07-30T09:02:39.631Z,25.42
2018-07-30T09:05:09.528Z,25.38
2018-07-30T09:07:38.419Z,25.44
2018-07-30T09:10:07.766Z,25.37
2018-07-30T09:12:36.901Z,25.45
2018-07-30T09:15:06.167Z,25.59
2018-07-30T09:17:34.780Z,25.69
2018-07-30T09:20:03.692Z,25.81
2018-07-30T09:22:32.711Z,25.96
2018-07-30T09:25:01.316Z,26.05
2018-07-30T09:27:29.955Z,26.17
2018-07-30T09:29:59.251Z,26.28
2018-07-30T09:32:27.903Z,26.44
2018-07-30T09:34:56.517Z,26.60
2018-07-30T09:37:25.100Z,26.70
2018-07-30T09:39:53.723Z,26.63
2018-07-30T09:42:22.369Z,26.83
2018-07-30T09:44:50.987Z,26.94
2018-07-30T09:47:19.946Z,27.07
2018-07-30T09:49:48.837Z,27.18
2018-07-30T09:52:17.522Z,27.30
2018-07-30T09:54:46.205Z,27.45
2018-07-30T09:57:14.789Z,27.47
2018-07-30T09:59:43.334Z,27.50
2018-07-30T10:02:12.012Z,27.39
2018-07-30T10:04:43.919Z,27.48
2018-07-30T10:07:13.687Z,27.54
2018-07-30T10:09:42.247Z,27.68
2018-07-30T10:12:10.820Z,27.87
2018-07-30T10:14:39.784Z,28.08
2018-07-30T10:17:08.403Z,28.19
2018-07-30T10:19:37.667Z,28.36
2018-07-30T10:22:06.458Z,28.60
2018-07-30T10:24:35.083Z,28.74
2018-07-30T10:27:03.774Z,28.78
2018-07-30T10:29:32.360Z,28.89
2018-07-30T10:32:00.931Z,28.97
2018-07-30T10:34:29.636Z,29.14
2018-07-30T10:36:58.259Z,29.12
2018-07-30T10:39:26.887Z,28.96
2018-07-30T10:41:55.874Z,29.20
2018-07-30T10:44:24.520Z,29.39
2018-07-30T10:46:53.205Z,29.52
2018-07-30T10:49:21.892Z,29.65
2018-07-30T10:51:50.604Z,29.88
2018-07-30T10:54:19.207Z,30.13
2018-07-30T10:56:47.756Z,30.23
2018-07-30T10:59:16.380Z,30.03
2018-07-30T11:01:44.971Z,30.10
2018-07-30T11:04:13.592Z,30.32
2018-07-30T11:06:42.278Z,30.40
2018-07-30T11:09:13.802Z,30.43
2018-07-30T11:11:40.159Z,30.37
2018-07-30T11:14:09.360Z,30.44
2018-07-30T11:16:38.134Z,30.51
2018-07-30T11:19:07.086Z,30.59
2018-07-30T11:21:35.750Z,30.38
2018-07-30T11:24:04.451Z,30.50
2018-07-30T11:26:33.006Z,30.64
2018-07-30T11:29:01.576Z,30.85
2018-07-30T11:31:30.074Z,30.92
2018-07-30T11:33:59.391Z,30.93
2018-07-30T11:36:27.933Z,30.90
2018-07-30T11:38:56.515Z,30.79
2018-07-30T11:41:25.146Z,30.63
2018-07-30T11:43:53.786Z,30.49
2018-07-30T11:46:22.398Z,30.61
2018-07-30T11:48:51.152Z,30.61
2018-07-30T11:51:19.739Z,30.75
2018-07-30T11:53:48.321Z,30.91
2018-07-30T11:56:16.847Z,30.93
2018-07-30T11:58:45.488Z,30.78
2018-07-30T12:01:14.228Z,30.84
2018-07-30T12:03:42.845Z,30.72
2018-07-30T12:06:11.749Z,30.59
2018-07-30T12:08:40.441Z,30.44
2018-07-30T12:11:09.064Z,30.33
2018-07-30T12:13:37.704Z,30.30
2018-07-30T12:16:06.227Z,30.43
2018-07-30T12:18:34.811Z,30.51
2018-07-30T12:21:03.451Z,30.58
2018-07-30T12:23:31.990Z,30.60
2018-07-30T12:26:00.563Z,30.73
2018-07-30T12:28:29.131Z,30.80
2018-07-30T12:30:57.695Z,30.96
2018-07-30T12:33:26.361Z,31.06
2018-07-30T12:35:55.359Z,31.18
2018-07-30T12:38:24.049Z,31.13
2018-07-30T12:40:52.638Z,31.31
2018-07-30T12:43:21.263Z,31.31
2018-07-30T12:45:49.831Z,31.24
2018-07-30T12:48:18.477Z,30.99
2018-07-30T12:50:47.151Z,31.02
2018-07-30T12:53:15.658Z,31.01
2018-07-30T12:55:44.231Z,31.03
2018-07-30T12:58:12.863Z,30.92
2018-07-30T13:00:41.494Z,30.92
2018-07-30T13:03:10.076Z,30.88
2018-07-30T13:05:38.583Z,30.72
2018-07-30T13:08:07.163Z,30.57
2018-07-30T13:10:35.928Z,30.36
2018-07-30T13:13:04.511Z,29.88
2018-07-30T13:15:33.126Z,29.77
2018-07-30T13:18:01.719Z,29.89
2018-07-30T13:20:30.363Z,30.14
2018-07-30T13:22:58.951Z,30.06
2018-07-30T13:25:27.568Z,30.14
2018-07-30T13:27:56.314Z,30.12
2018-07-30T13:30:24.958Z,30.16
2018-07-30T13:32:53.546Z,30.23
2018-07-30T13:35:22.227Z,29.96
2018-07-30T13:37:50.855Z,29.48
2018-07-30T13:40:19.536Z,29.33
2018-07-30T13:42:48.221Z,29.20
2018-07-30T13:45:16.804Z,29.14
2018-07-30T13:47:45.349Z,29.20
2018-07-30T13:50:13.970Z,29.22
2018-07-30T13:52:42.656Z,29.20
2018-07-30T13:55:11.444Z,29.31
2018-07-30T13:57:40.125Z,29.36
2018-07-30T14:00:10.291Z,29.40
2018-07-30T14:02:39.181Z,29.46
2018-07-30T14:05:08.812Z,29.40
2018-07-30T14:07:37.683Z,29.31
2018-07-30T14:10:06.977Z,29.26
2018-07-30T14:12:35.619Z,29.26
2018-07-30T14:15:05.199Z,29.19
2018-07-30T14:17:33.912Z,29.16
2018-07-30T14:20:02.599Z,29.28
2018-07-30T14:22:31.207Z,29.35
2018-07-30T14:24:59.705Z,29.37
2018-07-30T14:27:28.404Z,29.31
2018-07-30T14:29:57.030Z,29.38
2018-07-30T14:32:25.636Z,29.41
2018-07-30T14:34:54.298Z,29.19
2018-07-30T14:37:22.822Z,29.33
2018-07-30T14:39:51.465Z,29.50
2018-07-30T14:42:20.094Z,29.60
2018-07-30T14:44:48.651Z,29.39
2018-07-30T14:47:17.317Z,29.46
2018-07-30T14:49:46.001Z,29.60
2018-07-30T14:52:14.537Z,29.56
2018-07-30T14:54:43.119Z,29.49
2018-07-30T14:57:11.750Z,29.44
2018-07-30T14:59:40.470Z,29.54
2018-07-30T15:02:09.230Z,29.67
2018-07-30T15:04:38.421Z,29.64
2018-07-30T15:07:06.978Z,29.57
2018-07-30T15:09:35.639Z,29.53
2018-07-30T15:12:04.314Z,29.55
2018-07-30T15:14:32.844Z,29.51
2018-07-30T15:17:01.542Z,29.50
2018-07-30T15:19:30.246Z,29.45
2018-07-30T15:21:58.746Z,29.48
2018-07-30T15:24:28.107Z,29.44
2018-07-30T15:26:56.691Z,29.42
2018-07-30T15:29:25.376Z,29.45
2018-07-30T15:31:54.061Z,29.51
2018-07-30T15:34:22.823Z,29.59
2018-07-30T15:36:51.491Z,29.47
2018-07-30T15:39:20.118Z,29.46
2018-07-30T15:41:48.678Z,29.41
2018-07-30T15:44:17.283Z,29.36
2018-07-30T15:46:45.869Z,29.30
2018-07-30T15:49:14.404Z,29.12
2018-07-30T15:51:43.094Z,28.91
2018-07-30T15:54:11.663Z,29.00
2018-07-30T15:56:40.255Z,29.04
2018-07-30T15:59:08.877Z,29.10
2018-07-30T16:01:37.403Z,29.09
2018-07-30T16:04:06.257Z,29.07
2018-07-30T16:06:34.755Z,28.91
2018-07-30T16:09:03.624Z,28.95
2018-07-30T16:11:32.208Z,28.94
2018-07-30T16:14:00.742Z,28.95
2018-07-30T16:16:29.298Z,28.99
2018-07-30T16:18:58.020Z,28.95
2018-07-30T16:21:26.644Z,28.86
2018-07-30T16:23:55.247Z,28.90
2018-07-30T16:26:24.338Z,28.92
2018-07-30T16:28:53.154Z,28.88
2018-07-30T16:31:21.843Z,28.84
2018-07-30T16:33:50.412Z,28.86
2018-07-30T16:36:19.006Z,28.88
2018-07-30T16:38:47.644Z,28.88
2018-07-30T16:41:16.171Z,28.81
2018-07-30T16:43:44.912Z,28.69
2018-07-30T16:46:13.804Z,28.69
2018-07-30T16:48:42.439Z,28.67
2018-07-30T16:51:11.227Z,28.71
2018-07-30T16:53:39.905Z,28.76
2018-07-30T16:56:08.647Z,28.67
2018-07-30T16:58:37.189Z,28.64
2018-07-30T17:01:05.913Z,28.58
2018-07-30T17:03:34.546Z,28.59
2018-07-30T17:06:03.085Z,28.63
2018-07-30T17:08:31.719Z,28.68
2018-07-30T17:11:00.271Z,28.59
2018-07-30T17:13:28.786Z,28.53
2018-07-30T17:15:57.350Z,28.52
2018-07-30T17:18:27.530Z,28.56
2018-07-30T17:20:56.113Z,28.63
2018-07-30T17:23:25.394Z,28.68
2018-07-30T17:25:54.898Z,28.68
2018-07-30T17:28:23.415Z,28.69
2018-07-30T17:30:52.084Z,28.79
2018-07-30T17:33:20.683Z,28.88
2018-07-30T17:35:50.783Z,28.90
2018-07-30T17:38:20.331Z,28.90
2018-07-30T17:40:48.999Z,28.86
2018-07-30T17:43:17.660Z,28.85
2018-07-30T17:45:46.807Z,28.77
2018-07-30T17:48:15.323Z,28.74
2018-07-30T17:50:43.935Z,28.73
2018-07-30T17:53:12.635Z,28.70
2018-07-30T17:55:41.215Z,28.68
2018-07-30T17:58:09.772Z,28.58
2018-07-30T18:00:38.354Z,28.50
2018-07-30T18:03:07.094Z,28.51
2018-07-30T18:05:35.810Z,28.48
2018-07-30T18:08:04.518Z,28.41
2018-07-30T18:10:33.147Z,28.39
2018-07-30T18:13:01.885Z,28.40
2018-07-30T18:15:30.671Z,28.44
2018-07-30T18:17:59.171Z,28.40
2018-07-30T18:20:27.690Z,28.34
2018-07-30T18:22:56.330Z,28.25
2018-07-30T18:25:25.587Z,28.25
2018-07-30T18:27:54.123Z,28.25
2018-07-30T18:30:22.787Z,28.25
2018-07-30T18:32:51.418Z,28.26
2018-07-30T18:35:19.991Z,28.22
2018-07-30T18:37:48.559Z,28.06
2018-07-30T18:40:17.154Z,28.05
2018-07-30T18:42:45.908Z,28.09
2018-07-30T18:45:14.514Z,28.01
2018-07-30T18:47:43.094Z,28.00
2018-07-30T18:50:11.798Z,27.92
2018-07-30T18:52:40.359Z,27.87
2018-07-30T18:55:08.879Z,27.84
2018-07-30T18:57:37.417Z,27.80
2018-07-30T19:00:06.719Z,27.73
2018-07-30T19:02:35.281Z,27.69
2018-07-30T19:05:04.130Z,27.67
2018-07-30T19:07:32.755Z,27.60
2018-07-30T19:10:01.337Z,27.56
2018-07-30T19:12:29.936Z,27.50
2018-07-30T19:14:58.709Z,27.45
2018-07-30T19:17:27.393Z,27.37
2018-07-30T19:19:55.900Z,27.30
2018-07-30T19:22:24.487Z,27.22
2018-07-30T19:24:52.975Z,27.14
2018-07-30T19:27:21.622Z,27.08
2018-07-30T19:29:50.350Z,27.02
2018-07-30T19:32:18.997Z,26.93
2018-07-30T19:34:47.685Z,26.84
2018-07-30T19:37:16.187Z,26.75
2018-07-30T19:39:44.974Z,26.64
2018-07-30T19:42:13.490Z,26.54
2018-07-30T19:44:42.049Z,26.47
2018-07-30T19:47:10.623Z,26.36
2018-07-30T19:49:39.143Z,26.28
2018-07-30T19:52:08.680Z,26.19
2018-07-30T19:54:37.970Z,26.09
2018-07-30T19:57:06.557Z,25.98
2018-07-30T19:59:35.060Z,25.90
2018-07-30T20:02:03.775Z,25.80
2018-07-30T20:04:32.363Z,25.70
2018-07-30T20:07:01.100Z,25.60
2018-07-30T20:09:29.788Z,25.50
2018-07-30T20:11:58.391Z,25.40
2018-07-30T20:14:27.018Z,25.29
2018-07-30T20:16:55.612Z,25.20
2018-07-30T20:19:24.220Z,25.13
2018-07-30T20:21:52.823Z,25.03
2018-07-30T20:24:21.589Z,24.94
2018-07-30T20:26:50.138Z,24.88
2018-07-30T20:29:18.755Z,24.75
2018-07-30T20:31:47.255Z,24.66
2018-07-30T20:34:15.839Z,24.57
2018-07-30T20:36:44.430Z,24.50
2018-07-30T20:39:13.043Z,24.42
2018-07-30T20:41:41.776Z,24.33
2018-07-30T20:44:10.457Z,24.24
2018-07-30T20:46:39.199Z,24.18
2018-07-30T20:49:07.746Z,24.14
2018-07-30T20:51:37.027Z,23.70
2018-07-30T20:54:06.142Z,24.03
2018-07-30T20:56:34.805Z,23.99
2018-07-30T20:59:03.594Z,23.96
2018-07-30T21:01:32.176Z,23.92
2018-07-30T21:04:00.674Z,23.88
2018-07-30T21:06:29.444Z,23.85
2018-07-30T21:08:58.031Z,23.83
2018-07-30T21:11:26.680Z,23.78
2018-07-30T21:13:55.240Z,23.74
2018-07-30T21:16:24.594Z,23.68
2018-07-30T21:18:53.231Z,23.64
2018-07-30T21:21:21.999Z,23.59
2018-07-30T21:23:50.659Z,23.58
2018-07-30T21:26:19.170Z,23.56
2018-07-30T21:28:47.816Z,23.49
2018-07-30T21:31:16.400Z,23.43
2018-07-30T21:33:44.983Z,23.41
2018-07-30T21:36:13.565Z,23.39
2018-07-30T21:38:42.251Z,23.37
2018-07-30T21:41:10.777Z,23.35
2018-07-30T21:43:39.519Z,23.34
2018-07-30T21:46:08.028Z,23.32
2018-07-30T21:48:36.602Z,23.32
2018-07-30T21:51:05.094Z,23.29
2018-07-30T21:53:33.693Z,23.25
2018-07-30T21:56:02.330Z,23.21
2018-07-30T21:58:31.017Z,23.17
2018-07-30T22:00:59.712Z,23.14
2018-07-30T22:03:28.283Z,23.13
2018-07-30T22:06:01.783Z,23.10
2018-07-30T22:08:30.570Z,23.09
2018-07-30T22:10:59.240Z,23.05
2018-07-30T22:13:27.785Z,23.02
2018-07-30T22:15:56.783Z,22.96
2018-07-30T22:18:25.414Z,22.92
2018-07-30T22:20:53.997Z,22.86
2018-07-30T22:23:22.686Z,22.77
2018-07-30T22:25:51.361Z,22.69
2018-07-30T22:28:20.155Z,22.60
2018-07-30T22:30:48.760Z,22.53
2018-07-30T22:33:17.526Z,22.48
2018-07-30T22:35:46.128Z,22.41
2018-07-30T22:38:14.707Z,22.36
2018-07-30T22:40:43.225Z,22.32
2018-07-30T22:43:11.856Z,22.26
2018-07-30T22:45:40.690Z,22.16
2018-07-30T22:48:09.274Z,22.18
2018-07-30T22:50:37.812Z,22.15
2018-07-30T22:53:06.315Z,22.13
2018-07-30T22:55:34.976Z,22.10
2018-07-30T22:58:03.559Z,22.07
2018-07-30T23:00:32.090Z,22.03
2018-07-30T23:03:00.627Z,22.01
2018-07-30T23:05:29.294Z,21.94
2018-07-30T23:07:57.886Z,21.91
2018-07-30T23:10:26.476Z,21.88
2018-07-30T23:12:55.160Z,21.83
2018-07-30T23:15:23.678Z,21.81
2018-07-30T23:17:52.428Z,21.76
2018-07-30T23:20:20.950Z,21.76
2018-07-30T23:22:49.547Z,21.75
2018-07-30T23:25:18.051Z,21.75
2018-07-30T23:27:46.606Z,21.72
2018-07-30T23:30:15.136Z,21.70
2018-07-30T23:32:43.720Z,21.68
2018-07-30T23:35:12.337Z,21.69
2018-07-30T23:37:41.493Z,21.69
2018-07-30T23:40:10.183Z,21.67
2018-07-30T23:42:38.768Z,21.65
2018-07-30T23:45:07.386Z,21.64
2018-07-30T23:47:36.036Z,21.63
2018-07-30T23:50:04.624Z,21.65
2018-07-30T23:52:33.202Z,21.68
2018-07-30T23:55:01.888Z,21.72
2018-07-30T23:57:30.367Z,21.73
2018-07-30T23:59:58.862Z,21.73
